createdAt,value
2019-03-18T00:00:33.261Z,66.61
2019-03-18T00:05:36.780Z,67.01
2019-03-18T00:10:40.200Z,66.97
2019-03-18T00:15:43.588Z,67.25
2019-03-18T00:20:47.111Z,65.99
2019-03-18T00:25:50.623Z,66.22
2019-03-18T00:30:54.021Z,66.39
2019-03-18T00:35:57.572Z,65.35
2019-03-18T00:41:00.999Z,65.86
2019-03-18T00:46:04.494Z,65.82
2019-03-18T00:51:07.910Z,65.65
2019-03-18T00:56:11.352Z,65.88
2019-03-18T01:01:14.774Z,65.34
2019-03-18T01:06:18.253Z,65.29
2019-03-18T01:11:21.682Z,65.28
2019-03-18T01:16:25.112Z,64.95
2019-03-18T01:21:28.608Z,65.44
2019-03-18T01:26:32.116Z,64.95
2019-03-18T01:31:35.561Z,64.81
2019-03-18T01:36:39.052Z,64.12
2019-03-18T01:41:43.622Z,64.04
2019-03-18T01:46:47.137Z,63.90
2019-03-18T01:51:50.646Z,64.21
2019-03-18T01:56:54.210Z,64.10
2019-03-18T02:01:57.712Z,64.04
2019-03-18T02:07:01.187Z,64.24
2019-03-18T02:12:04.701Z,64.12
2019-03-18T02:17:08.111Z,63.65
2019-03-18T02:22:11.528Z,63.86
2019-03-18T02:27:15.053Z,64.15
2019-03-18T02:32:18.526Z,64.41
2019-03-18T02:37:21.934Z,64.46
2019-03-18T02:42:26.431Z,64.45
2019-03-18T02:47:29.996Z,64.16
2019-03-18T02:52:33.533Z,63.83
2019-03-18T02:57:37.041Z,63.58
2019-03-18T03:02:40.550Z,64.34
2019-03-18T03:07:44.101Z,64.16
2019-03-18T03:12:47.643Z,64.38
2019-03-18T03:17:51.194Z,64.76
2019-03-18T03:22:54.691Z,64.18
2019-03-18T03:27:58.309Z,64.75
2019-03-18T03:33:01.906Z,64.40
2019-03-18T03:38:05.460Z,64.65
2019-03-18T03:43:09.002Z,64.49
2019-03-18T03:48:12.657Z,64.16
2019-03-18T03:53:16.384Z,64.08
2019-03-18T03:58:19.901Z,64.78
2019-03-18T04:03:37.719Z,64.57
2019-03-18T04:08:27.014Z,64.88
2019-03-18T04:13:30.474Z,65.00
2019-03-18T04:18:33.945Z,65.13
2019-03-18T04:23:37.417Z,65.49
2019-03-18T04:28:40.898Z,66.19
2019-03-18T04:33:44.356Z,65.60
2019-03-18T04:38:47.845Z,65.74
2019-03-18T04:43:51.440Z,66.32
2019-03-18T04:48:54.876Z,66.24
2019-03-18T04:53:58.313Z,66.11
2019-03-18T04:59:01.728Z,66.57
2019-03-18T05:04:05.264Z,66.59
2019-03-18T05:09:08.667Z,67.25
2019-03-18T05:14:12.343Z,67.59
2019-03-18T05:19:15.944Z,67.57
2019-03-18T05:24:19.344Z,67.51
2019-03-18T05:29:22.862Z,68.08
2019-03-18T05:34:26.275Z,67.72
2019-03-18T05:39:29.768Z,67.96
2019-03-18T05:44:33.177Z,67.09
2019-03-18T05:49:36.582Z,67.64
2019-03-18T05:54:39.984Z,67.64
2019-03-18T05:59:43.397Z,67.14
2019-03-18T06:04:46.977Z,67.78
2019-03-18T06:09:50.423Z,68.13
2019-03-18T06:14:53.958Z,67.32
2019-03-18T06:19:57.432Z,67.16
2019-03-18T06:25:00.854Z,67.35
2019-03-18T06:30:04.648Z,67.31
2019-03-18T06:35:08.488Z,66.78
2019-03-18T06:40:12.003Z,66.85
2019-03-18T06:45:15.512Z,66.40
2019-03-18T06:50:18.951Z,66.29
2019-03-18T06:55:22.461Z,66.25
2019-03-18T07:00:25.964Z,66.15
2019-03-18T07:05:29.407Z,66.01
2019-03-18T07:10:32.875Z,65.68
2019-03-18T07:15:36.263Z,65.07
2019-03-18T07:20:44.335Z,64.34
2019-03-18T07:25:47.755Z,63.69
2019-03-18T07:30:51.227Z,63.34
2019-03-18T07:35:54.681Z,63.28
2019-03-18T07:40:58.120Z,63.54
2019-03-18T07:46:01.590Z,63.07
2019-03-18T07:51:05.082Z,64.08
2019-03-18T07:56:08.638Z,62.89
2019-03-18T08:01:12.148Z,62.11
2019-03-18T08:06:15.628Z,61.72
2019-03-18T08:11:19.129Z,61.51
2019-03-18T08:16:22.647Z,61.57
2019-03-18T08:21:26.172Z,62.05
2019-03-18T08:26:30.401Z,61.65
2019-03-18T08:31:33.806Z,61.72
2019-03-18T08:36:37.364Z,61.07
2019-03-18T08:41:40.763Z,59.86
2019-03-18T08:46:44.242Z,58.60
2019-03-18T08:51:47.660Z,59.50
2019-03-18T08:56:51.143Z,58.45
2019-03-18T09:01:54.689Z,56.28
2019-03-18T09:06:59.112Z,56.65
2019-03-18T09:12:02.642Z,56.25
2019-03-18T09:17:06.129Z,54.39
2019-03-18T09:22:09.558Z,52.20
2019-03-18T09:27:13.034Z,52.01
2019-03-18T09:32:16.519Z,49.11
2019-03-18T09:37:19.944Z,50.41
2019-03-18T09:42:23.426Z,50.00
2019-03-18T09:47:26.912Z,53.73
2019-03-18T09:52:30.433Z,53.40
2019-03-18T09:57:33.944Z,54.55
2019-03-18T10:02:37.376Z,54.63
2019-03-18T10:07:40.792Z,54.46
2019-03-18T10:12:44.204Z,53.51
2019-03-18T10:17:47.752Z,54.87
2019-03-18T10:22:51.178Z,54.71
2019-03-18T10:27:54.726Z,54.98
2019-03-18T10:32:58.442Z,56.19
2019-03-18T10:38:01.917Z,59.93
2019-03-18T10:43:05.426Z,60.35
2019-03-18T10:48:08.921Z,59.55
2019-03-18T10:53:12.417Z,59.51
2019-03-18T10:58:18.110Z,59.34
2019-03-18T11:03:19.432Z,60.01
2019-03-18T11:08:22.843Z,59.98
2019-03-18T11:13:26.477Z,59.25
2019-03-18T11:18:29.909Z,58.15
2019-03-18T11:23:33.444Z,56.58
2019-03-18T11:28:37.023Z,53.31
2019-03-18T11:33:40.456Z,50.37
2019-03-18T11:38:43.929Z,50.66
2019-03-18T11:43:47.807Z,51.42
2019-03-18T11:48:51.224Z,50.17
2019-03-18T11:53:54.785Z,47.55
2019-03-18T11:58:58.300Z,47.00
2019-03-18T12:04:04.771Z,46.38
2019-03-18T12:09:08.311Z,47.40
2019-03-18T12:14:11.873Z,47.34
2019-03-18T12:19:15.343Z,46.60
2019-03-18T12:24:18.921Z,47.35
2019-03-18T12:29:22.559Z,47.48
2019-03-18T12:34:26.175Z,47.90
2019-03-18T12:39:29.705Z,49.91
2019-03-18T12:44:33.171Z,49.94
2019-03-18T12:49:36.861Z,52.58
2019-03-18T12:54:40.332Z,52.31
2019-03-18T12:59:43.828Z,53.47
2019-03-18T13:04:47.395Z,56.53
2019-03-18T13:09:50.901Z,56.42
2019-03-18T13:14:54.331Z,55.42
2019-03-18T13:19:57.797Z,54.89
2019-03-18T13:25:01.228Z,55.11
2019-03-18T13:30:05.753Z,55.04
2019-03-18T13:35:09.305Z,54.24
2019-03-18T13:40:12.796Z,54.08
2019-03-18T13:45:16.343Z,53.59
2019-03-18T13:50:19.851Z,53.55
2019-03-18T13:55:23.455Z,53.40
2019-03-18T14:00:26.880Z,53.50
2019-03-18T14:05:30.491Z,54.01
2019-03-18T14:10:36.030Z,53.69
2019-03-18T14:15:39.449Z,53.65
2019-03-18T14:20:42.885Z,54.92
2019-03-18T14:25:46.349Z,54.89
2019-03-18T14:30:49.880Z,50.91
2019-03-18T14:35:53.356Z,49.20
2019-03-18T14:40:56.877Z,46.54
2019-03-18T14:46:00.503Z,48.47
2019-03-18T14:51:04.000Z,48.96
2019-03-18T14:56:07.481Z,46.74
2019-03-18T15:01:11.061Z,48.16
2019-03-18T15:06:14.518Z,46.09
2019-03-18T15:11:20.184Z,43.70
2019-03-18T15:16:23.697Z,44.17
2019-03-18T15:21:27.145Z,45.00
2019-03-18T15:26:30.705Z,44.52
2019-03-18T15:31:34.329Z,46.51
2019-03-18T15:36:37.907Z,46.76
2019-03-18T15:41:41.439Z,49.50
2019-03-18T15:46:45.063Z,48.00
2019-03-18T15:51:48.548Z,48.74
2019-03-18T15:56:52.115Z,54.23
2019-03-18T16:01:55.689Z,55.38
2019-03-18T16:06:59.297Z,53.15
2019-03-18T16:12:02.773Z,53.26
2019-03-18T16:17:06.454Z,56.57
2019-03-18T16:22:22.574Z,58.06
2019-03-18T16:27:13.692Z,58.41
2019-03-18T16:32:17.253Z,58.30
2019-03-18T16:37:20.833Z,57.94
2019-03-18T16:42:24.384Z,58.74
2019-03-18T16:47:31.239Z,58.21
2019-03-18T16:52:35.992Z,59.87
2019-03-18T16:57:38.490Z,59.76
2019-03-18T17:02:42.022Z,60.76
2019-03-18T17:07:45.515Z,59.74
2019-03-18T17:12:49.047Z,60.56
2019-03-18T17:17:52.545Z,60.59
2019-03-18T17:22:56.014Z,63.60
2019-03-18T17:27:59.505Z,60.14
2019-03-18T17:33:03.200Z,63.30
2019-03-18T17:38:06.987Z,61.81
2019-03-18T17:43:10.636Z,61.31
2019-03-18T17:48:14.247Z,63.08
2019-03-18T17:53:17.999Z,62.13
2019-03-18T17:58:21.718Z,61.73
2019-03-18T18:03:25.313Z,66.35
2019-03-18T18:08:28.942Z,70.92
2019-03-18T18:13:32.730Z,70.78
2019-03-18T18:18:39.296Z,70.32
2019-03-18T18:23:42.948Z,69.99
2019-03-18T18:28:46.604Z,70.50
2019-03-18T18:33:50.263Z,70.61
2019-03-18T18:38:53.855Z,70.91
2019-03-18T18:43:57.458Z,70.32
2019-03-18T18:49:01.063Z,72.95
2019-03-18T18:54:04.653Z,72.37
2019-03-18T18:59:08.181Z,73.10
2019-03-18T19:04:11.708Z,73.82
2019-03-18T19:09:15.363Z,74.13
2019-03-18T19:14:19.338Z,74.96
2019-03-18T19:19:22.895Z,73.63
2019-03-18T19:24:26.436Z,70.46
2019-03-18T19:29:30.059Z,73.48
2019-03-18T19:34:33.692Z,73.42
2019-03-18T19:39:38.540Z,72.20
2019-03-18T19:44:42.108Z,72.47
2019-03-18T19:49:45.614Z,74.76
2019-03-18T19:54:49.184Z,72.72
2019-03-18T19:59:52.805Z,73.71
2019-03-18T20:04:56.722Z,73.12
2019-03-18T20:10:00.468Z,73.03
2019-03-18T20:15:04.105Z,73.06
2019-03-18T20:20:09.328Z,73.51
2019-03-18T20:25:12.922Z,73.74
2019-03-18T20:30:17.125Z,73.44
2019-03-18T20:35:20.784Z,72.19
2019-03-18T20:40:24.447Z,73.68
2019-03-18T20:45:28.300Z,74.33
2019-03-18T20:50:32.051Z,75.26
2019-03-18T20:55:36.179Z,74.34
2019-03-18T21:00:40.128Z,74.65
2019-03-18T21:05:43.868Z,76.80
2019-03-18T21:10:47.496Z,77.64
2019-03-18T21:15:51.253Z,77.28
2019-03-18T21:20:55.004Z,74.58
2019-03-18T21:25:58.652Z,74.69
2019-03-18T21:31:02.192Z,73.99
2019-03-18T21:36:05.754Z,74.04
2019-03-18T21:41:10.302Z,74.69
2019-03-18T21:46:13.822Z,74.95
2019-03-18T21:51:17.534Z,74.88
2019-03-18T21:56:21.161Z,74.96
2019-03-18T22:01:24.592Z,74.67
2019-03-18T22:06:29.136Z,74.37
2019-03-18T22:11:32.609Z,74.33
2019-03-18T22:16:36.141Z,76.18
2019-03-18T22:21:39.749Z,75.18
2019-03-18T22:26:43.241Z,74.46
2019-03-18T22:31:46.737Z,74.25
2019-03-18T22:36:51.329Z,74.08
2019-03-18T22:41:54.942Z,74.10
2019-03-18T22:46:58.573Z,75.54
2019-03-18T22:52:02.016Z,75.83
2019-03-18T22:57:05.551Z,76.19
2019-03-18T23:02:09.156Z,77.57
2019-03-18T23:07:12.616Z,78.14
2019-03-18T23:12:16.068Z,79.13
2019-03-18T23:17:19.491Z,79.90
2019-03-18T23:22:22.953Z,79.60
2019-03-18T23:27:26.404Z,79.54
2019-03-18T23:32:29.849Z,78.99
2019-03-18T23:37:33.265Z,78.03
2019-03-18T23:42:36.781Z,78.06
2019-03-18T23:47:40.202Z,78.43
2019-03-18T23:52:43.701Z,78.20
2019-03-18T23:57:47.243Z,78.09
